ENT7065 EPKT-LEPA
Flight info
| Callsign | ENT7065 |
|---|---|
| Flight time | 2h 36m |
| Altitude | 36000 |
| Route | TUSIN DCT UPLAV DCT MIKOV DCT DETSA/N0454F370 DCT BAKOR DCT GEKBA/N0431F290 DCT VAMTU DCT KOLON DCT GANGU DCT PADKO DCT VATIR N852 VERSO L129 LUNIK |
| Aircraft | B738/M-SDGHIJ1RWXY/EB1 |
Departure
| Time | 2026-05-05 20:24 |
|---|---|
| Airport | Katowice Wojciech Korfanty International Airport (EPKT) |
Arrival
| Time | 2026-05-05 23:00 |
|---|---|
| Airport | Palma de Mallorca Airport (LEPA) |
| Time | Latitude | Longitude | Altitude | Speed | Heading |
|---|---|---|---|---|---|
| 2026-05-05 19:54 | 50.47148 | 19.08247 | 999 ft | 0 kts | 180° |
| 2026-05-05 20:10 | 50.47159 | 19.08247 | 997 ft | 3 kts | 180° |
| 2026-05-05 20:10 | 50.47182 | 19.08247 | 997 ft | 3 kts | 180° |
| 2026-05-05 20:10 | 50.47201 | 19.08247 | 999 ft | 2 kts | 180° |
| 2026-05-05 20:10 | 50.47221 | 19.08243 | 997 ft | 3 kts | 144° |
| 2026-05-05 20:11 | 50.47232 | 19.08220 | 999 ft | 3 kts | 94° |
| 2026-05-05 20:11 | 50.47233 | 19.08186 | 997 ft | 3 kts | 90° |
| 2026-05-05 20:11 | 50.47233 | 19.08173 | 997 ft | 0 kts | 90° |
| 2026-05-05 20:14 | 50.47233 | 19.08202 | 997 ft | 5 kts | 90° |
| 2026-05-05 20:15 | 50.47233 | 19.08268 | 1001 ft | 9 kts | 91° |
| 2026-05-05 20:15 | 50.47232 | 19.08388 | 1003 ft | 11 kts | 89° |
| 2026-05-05 20:15 | 50.47232 | 19.08510 | 999 ft | 11 kts | 90° |
| 2026-05-05 20:15 | 50.47231 | 19.08629 | 1003 ft | 11 kts | 91° |
| 2026-05-05 20:16 | 50.47231 | 19.08745 | 1003 ft | 11 kts | 90° |
| 2026-05-05 20:16 | 50.47231 | 19.08876 | 1001 ft | 13 kts | 90° |
| 2026-05-05 20:16 | 50.47230 | 19.09026 | 1003 ft | 14 kts | 90° |
| 2026-05-05 20:16 | 50.47230 | 19.09170 | 1001 ft | 13 kts | 90° |
| 2026-05-05 20:17 | 50.47229 | 19.09318 | 1003 ft | 14 kts | 90° |
| 2026-05-05 20:17 | 50.47230 | 19.09456 | 1001 ft | 11 kts | 90° |
| 2026-05-05 20:17 | 50.47230 | 19.09487 | 1003 ft | 0 kts | 90° |
| 2026-05-05 20:18 | 50.47230 | 19.09491 | 1003 ft | 3 kts | 90° |
| 2026-05-05 20:18 | 50.47230 | 19.09591 | 1003 ft | 14 kts | 90° |
| 2026-05-05 20:19 | 50.47229 | 19.09771 | 1002 ft | 17 kts | 90° |
| 2026-05-05 20:19 | 50.47228 | 19.09951 | 1002 ft | 16 kts | 90° |
| 2026-05-05 20:19 | 50.47275 | 19.10103 | 997 ft | 16 kts | 52° |
| 2026-05-05 20:19 | 50.47340 | 19.10233 | 997 ft | 12 kts | 52° |
| 2026-05-05 20:20 | 50.47385 | 19.10326 | 997 ft | 10 kts | 52° |
| 2026-05-05 20:20 | 50.47407 | 19.10370 | 997 ft | 0 kts | 52° |
| 2026-05-05 20:22 | 50.47419 | 19.10393 | 1002 ft | 6 kts | 52° |
| 2026-05-05 20:22 | 50.47477 | 19.10447 | 1000 ft | 16 kts | 5° |
| 2026-05-05 20:22 | 50.47583 | 19.10409 | 997 ft | 16 kts | 306° |
| 2026-05-05 20:23 | 50.47594 | 19.10277 | 1002 ft | 2 kts | 270° |
| 2026-05-05 20:23 | 50.47595 | 19.10250 | 1002 ft | 2 kts | 270° |
| 2026-05-05 20:23 | 50.47595 | 19.10219 | 998 ft | 7 kts | 270° |
| 2026-05-05 20:23 | 50.47595 | 19.09726 | 997 ft | 84 kts | 270° |
| 2026-05-05 20:24 | 50.47598 | 19.08430 | 996 ft | 151 kts | 269° |
| 2026-05-05 20:24 | 50.47614 | 19.06557 | 1381 ft | 178 kts | 268° |
| 2026-05-05 20:24 | 50.47625 | 19.04618 | 2400 ft | 176 kts | 263° |
| 2026-05-05 20:24 | 50.47644 | 19.02687 | 3299 ft | 180 kts | 263° |
| 2026-05-05 20:25 | 50.47654 | 19.00640 | 3737 ft | 198 kts | 263° |
| 2026-05-05 20:25 | 50.47369 | 18.98471 | 3926 ft | 210 kts | 232° |
| 2026-05-05 20:25 | 50.46205 | 18.97107 | 4327 ft | 216 kts | 202° |
| 2026-05-05 20:25 | 50.44749 | 18.96195 | 4633 ft | 236 kts | 202° |
| 2026-05-05 20:26 | 50.43194 | 18.95215 | 5275 ft | 243 kts | 202° |
| 2026-05-05 20:26 | 50.41637 | 18.94227 | 6101 ft | 245 kts | 202° |
| 2026-05-05 20:26 | 50.40032 | 18.93201 | 6739 ft | 254 kts | 202° |
| 2026-05-05 20:26 | 50.38357 | 18.92121 | 7474 ft | 258 kts | 202° |
| 2026-05-05 20:27 | 50.36683 | 18.91037 | 8198 ft | 264 kts | 202° |
| 2026-05-05 20:27 | 50.34992 | 18.89937 | 8882 ft | 269 kts | 202° |
| 2026-05-05 20:27 | 50.33221 | 18.88783 | 9594 ft | 275 kts | 202° |
| 2026-05-05 20:27 | 50.31460 | 18.87632 | 10166 ft | 284 kts | 202° |
| 2026-05-05 20:28 | 50.29565 | 18.86394 | 10343 ft | 307 kts | 202° |
| 2026-05-05 20:28 | 50.27518 | 18.85056 | 10512 ft | 329 kts | 202° |
| 2026-05-05 20:28 | 50.25347 | 18.83636 | 10850 ft | 343 kts | 202° |
| 2026-05-05 20:28 | 50.23122 | 18.82180 | 11436 ft | 349 kts | 202° |
| 2026-05-05 20:29 | 50.20876 | 18.80712 | 12129 ft | 351 kts | 202° |
| 2026-05-05 20:29 | 50.18612 | 18.79232 | 12824 ft | 354 kts | 202° |
| 2026-05-05 20:29 | 50.16327 | 18.77740 | 13473 ft | 358 kts | 202° |
| 2026-05-05 20:29 | 50.14014 | 18.76232 | 14066 ft | 362 kts | 202° |
| 2026-05-05 20:30 | 50.11682 | 18.74713 | 14648 ft | 365 kts | 202° |
| 2026-05-05 20:30 | 50.09326 | 18.73180 | 15240 ft | 369 kts | 202° |
| 2026-05-05 20:30 | 50.06942 | 18.71631 | 15799 ft | 372 kts | 202° |
| 2026-05-05 20:30 | 50.04543 | 18.70073 | 16352 ft | 376 kts | 202° |
| 2026-05-05 20:31 | 50.02115 | 18.68498 | 16907 ft | 380 kts | 202° |
| 2026-05-05 20:31 | 49.99699 | 18.66933 | 17459 ft | 383 kts | 202° |
| 2026-05-05 20:31 | 49.97228 | 18.65334 | 18007 ft | 386 kts | 203° |
| 2026-05-05 20:31 | 49.94737 | 18.63723 | 18494 ft | 390 kts | 203° |
| 2026-05-05 20:32 | 49.92224 | 18.62100 | 18968 ft | 393 kts | 203° |
| 2026-05-05 20:32 | 49.89688 | 18.60464 | 19439 ft | 396 kts | 203° |
| 2026-05-05 20:32 | 49.87166 | 18.58721 | 19889 ft | 399 kts | 209° |
| 2026-05-05 20:32 | 49.84851 | 18.56329 | 20346 ft | 402 kts | 219° |
| 2026-05-05 20:33 | 49.82795 | 18.53389 | 20864 ft | 402 kts | 228° |
| 2026-05-05 20:33 | 49.81066 | 18.50060 | 21488 ft | 401 kts | 232° |
| 2026-05-05 20:33 | 49.79382 | 18.46622 | 22034 ft | 401 kts | 233° |
| 2026-05-05 20:33 | 49.77702 | 18.43163 | 22512 ft | 404 kts | 233° |
| 2026-05-05 20:34 | 49.76002 | 18.39673 | 22911 ft | 407 kts | 233° |
| 2026-05-05 20:34 | 49.74281 | 18.36159 | 23234 ft | 412 kts | 233° |
| 2026-05-05 20:34 | 49.72543 | 18.32634 | 23712 ft | 412 kts | 232° |
| 2026-05-05 20:34 | 49.70792 | 18.29099 | 23980 ft | 417 kts | 232° |
| 2026-05-05 20:35 | 49.69014 | 18.25522 | 24229 ft | 422 kts | 232° |
| 2026-05-05 20:35 | 49.67218 | 18.21917 | 24597 ft | 423 kts | 232° |
| 2026-05-05 20:35 | 49.65422 | 18.18318 | 25019 ft | 423 kts | 232° |
| 2026-05-05 20:35 | 49.63613 | 18.14698 | 25244 ft | 428 kts | 232° |
| 2026-05-05 20:36 | 49.61781 | 18.11038 | 25510 ft | 431 kts | 232° |
| 2026-05-05 20:36 | 49.59952 | 18.07389 | 25967 ft | 430 kts | 232° |
| 2026-05-05 20:36 | 49.58122 | 18.03743 | 26286 ft | 432 kts | 232° |
| 2026-05-05 20:36 | 49.56902 | 18.01315 | 26451 ft | 434 kts | 232° |
| 2026-05-05 20:37 | 49.55042 | 17.97616 | 26717 ft | 437 kts | 232° |
| 2026-05-05 20:37 | 49.53183 | 17.93926 | 27090 ft | 437 kts | 232° |
| 2026-05-05 20:37 | 49.51312 | 17.90216 | 27317 ft | 441 kts | 232° |
| 2026-05-05 20:37 | 49.49422 | 17.86472 | 27539 ft | 444 kts | 232° |
| 2026-05-05 20:38 | 49.47530 | 17.82732 | 27899 ft | 443 kts | 233° |
| 2026-05-05 20:38 | 49.45630 | 17.78980 | 28138 ft | 446 kts | 233° |
| 2026-05-05 20:38 | 49.43716 | 17.75207 | 28364 ft | 448 kts | 233° |
| 2026-05-05 20:38 | 49.41801 | 17.71435 | 28750 ft | 447 kts | 233° |
| 2026-05-05 20:39 | 49.39890 | 17.67677 | 29215 ft | 445 kts | 233° |
| 2026-05-05 20:39 | 49.37989 | 17.63945 | 29638 ft | 443 kts | 233° |
| 2026-05-05 20:39 | 49.36093 | 17.60224 | 29959 ft | 443 kts | 233° |
| 2026-05-05 20:39 | 49.34194 | 17.56507 | 30262 ft | 443 kts | 233° |
| 2026-05-05 20:40 | 49.32292 | 17.52798 | 30588 ft | 442 kts | 232° |
| 2026-05-05 20:40 | 49.30315 | 17.49206 | 30913 ft | 440 kts | 229° |
| 2026-05-05 20:40 | 49.28284 | 17.45717 | 31317 ft | 437 kts | 229° |
| 2026-05-05 20:40 | 49.26236 | 17.42272 | 31607 ft | 437 kts | 228° |
| 2026-05-05 20:41 | 49.24185 | 17.38835 | 31828 ft | 438 kts | 228° |
| 2026-05-05 20:41 | 49.22143 | 17.35402 | 32173 ft | 436 kts | 229° |
| 2026-05-05 20:41 | 49.20114 | 17.31976 | 32525 ft | 434 kts | 229° |
| 2026-05-05 20:41 | 49.18092 | 17.28553 | 32766 ft | 434 kts | 229° |
| 2026-05-05 20:42 | 49.16072 | 17.25128 | 33055 ft | 433 kts | 229° |
| 2026-05-05 20:42 | 49.14058 | 17.21712 | 33369 ft | 432 kts | 229° |
| 2026-05-05 20:42 | 49.12053 | 17.18313 | 33637 ft | 431 kts | 228° |
| 2026-05-05 20:42 | 49.10051 | 17.14924 | 33925 ft | 429 kts | 228° |
| 2026-05-05 20:43 | 49.08048 | 17.11538 | 34158 ft | 428 kts | 228° |
| 2026-05-05 20:43 | 49.06050 | 17.08165 | 34365 ft | 428 kts | 228° |
| 2026-05-05 20:43 | 49.04057 | 17.04807 | 34580 ft | 428 kts | 228° |
| 2026-05-05 20:43 | 49.02058 | 17.01441 | 34791 ft | 427 kts | 228° |
| 2026-05-05 20:44 | 49.00062 | 16.98085 | 34984 ft | 427 kts | 228° |
| 2026-05-05 20:44 | 48.98081 | 16.94758 | 35201 ft | 426 kts | 228° |
| 2026-05-05 20:44 | 48.96093 | 16.91425 | 35433 ft | 425 kts | 228° |
| 2026-05-05 20:44 | 48.94104 | 16.88095 | 35628 ft | 425 kts | 228° |
| 2026-05-05 20:45 | 48.90148 | 16.81481 | 35774 ft | 428 kts | 228° |
| 2026-05-05 20:45 | 48.86146 | 16.74808 | 35781 ft | 426 kts | 228° |
| 2026-05-05 20:46 | 48.82169 | 16.68190 | 35773 ft | 423 kts | 228° |
| 2026-05-05 20:46 | 48.78255 | 16.61571 | 35762 ft | 420 kts | 233° |
| 2026-05-05 20:47 | 48.75050 | 16.54217 | 35756 ft | 418 kts | 238° |
| 2026-05-05 20:47 | 48.71965 | 16.46771 | 35766 ft | 417 kts | 238° |
| 2026-05-05 20:48 | 48.68856 | 16.39351 | 35761 ft | 418 kts | 238° |
| 2026-05-05 20:48 | 48.65711 | 16.31926 | 35759 ft | 419 kts | 237° |
| 2026-05-05 20:49 | 48.62547 | 16.24503 | 35770 ft | 421 kts | 237° |
| 2026-05-05 20:49 | 48.59360 | 16.17052 | 35756 ft | 423 kts | 237° |
| 2026-05-05 20:50 | 48.56161 | 16.09593 | 35752 ft | 424 kts | 237° |
| 2026-05-05 20:50 | 48.52952 | 16.02134 | 35750 ft | 424 kts | 237° |
| 2026-05-05 20:51 | 48.49757 | 15.94724 | 35754 ft | 424 kts | 237° |
| 2026-05-05 20:51 | 48.46540 | 15.87285 | 35748 ft | 423 kts | 237° |
| 2026-05-05 20:52 | 48.43323 | 15.79867 | 35746 ft | 422 kts | 237° |
| 2026-05-05 20:52 | 48.40111 | 15.72479 | 35750 ft | 421 kts | 237° |
| 2026-05-05 20:53 | 48.36902 | 15.65119 | 35770 ft | 420 kts | 237° |
| 2026-05-05 20:53 | 48.33696 | 15.57786 | 35759 ft | 419 kts | 237° |
| 2026-05-05 20:54 | 48.30490 | 15.50472 | 35759 ft | 418 kts | 237° |
| 2026-05-05 20:54 | 48.27287 | 15.43185 | 35776 ft | 418 kts | 237° |
| 2026-05-05 20:55 | 48.24079 | 15.35907 | 35769 ft | 418 kts | 237° |
| 2026-05-05 20:55 | 48.20870 | 15.28646 | 35781 ft | 418 kts | 237° |
| 2026-05-05 20:56 | 48.17655 | 15.21390 | 35779 ft | 418 kts | 237° |
| 2026-05-05 20:56 | 48.14432 | 15.14134 | 35792 ft | 419 kts | 236° |
| 2026-05-05 20:57 | 48.11199 | 15.06878 | 35805 ft | 419 kts | 236° |
| 2026-05-05 20:57 | 48.07977 | 14.99665 | 35795 ft | 420 kts | 236° |
| 2026-05-05 20:58 | 48.04725 | 14.92403 | 35807 ft | 420 kts | 236° |
| 2026-05-05 20:58 | 48.01466 | 14.85147 | 35810 ft | 421 kts | 236° |
| 2026-05-05 20:59 | 47.98199 | 14.77891 | 35810 ft | 421 kts | 236° |
| 2026-05-05 20:59 | 47.94923 | 14.70633 | 35817 ft | 422 kts | 236° |
| 2026-05-05 21:00 | 47.91642 | 14.63385 | 35826 ft | 422 kts | 236° |
| 2026-05-05 21:00 | 47.88352 | 14.56136 | 35837 ft | 422 kts | 236° |
| 2026-05-05 21:01 | 47.85057 | 14.48895 | 35842 ft | 422 kts | 235° |
| 2026-05-05 21:01 | 47.81765 | 14.41682 | 35837 ft | 421 kts | 235° |
| 2026-05-05 21:02 | 47.78471 | 14.34481 | 35847 ft | 420 kts | 235° |
| 2026-05-05 21:02 | 47.75178 | 14.27302 | 35843 ft | 420 kts | 235° |
| 2026-05-05 21:03 | 47.71885 | 14.20142 | 35843 ft | 420 kts | 235° |
| 2026-05-05 21:03 | 47.68593 | 14.13002 | 35856 ft | 419 kts | 235° |
| 2026-05-05 21:04 | 47.65327 | 14.05936 | 35853 ft | 417 kts | 235° |
| 2026-05-05 21:04 | 47.62045 | 13.98855 | 35871 ft | 417 kts | 235° |
| 2026-05-05 21:05 | 47.58758 | 13.91784 | 35897 ft | 416 kts | 234° |
| 2026-05-05 21:05 | 47.55473 | 13.84731 | 35869 ft | 416 kts | 234° |
| 2026-05-05 21:06 | 47.52190 | 13.77702 | 35873 ft | 414 kts | 234° |
| 2026-05-05 21:06 | 47.48918 | 13.70714 | 35873 ft | 413 kts | 234° |
| 2026-05-05 21:07 | 47.45650 | 13.63753 | 35878 ft | 411 kts | 234° |
| 2026-05-05 21:07 | 47.42386 | 13.56818 | 35884 ft | 411 kts | 234° |
| 2026-05-05 21:08 | 47.39121 | 13.49896 | 35881 ft | 411 kts | 234° |
| 2026-05-05 21:08 | 47.35855 | 13.42993 | 35882 ft | 410 kts | 234° |
| 2026-05-05 21:09 | 47.32613 | 13.36157 | 35901 ft | 409 kts | 234° |
| 2026-05-05 21:09 | 47.29350 | 13.29291 | 35897 ft | 409 kts | 234° |
| 2026-05-05 21:10 | 47.26087 | 13.22447 | 35901 ft | 408 kts | 234° |
| 2026-05-05 21:10 | 47.22826 | 13.15620 | 35889 ft | 407 kts | 234° |
| 2026-05-05 21:11 | 47.19568 | 13.08816 | 35909 ft | 407 kts | 234° |
| 2026-05-05 21:11 | 47.16309 | 13.02028 | 35918 ft | 406 kts | 234° |
| 2026-05-05 21:12 | 47.13043 | 12.95244 | 35921 ft | 407 kts | 234° |
| 2026-05-05 21:12 | 47.09771 | 12.88461 | 35930 ft | 407 kts | 234° |
| 2026-05-05 21:13 | 47.06496 | 12.81690 | 35966 ft | 407 kts | 234° |
| 2026-05-05 21:13 | 47.03218 | 12.74929 | 35937 ft | 406 kts | 234° |
| 2026-05-05 21:14 | 46.99946 | 12.68196 | 35944 ft | 405 kts | 234° |
| 2026-05-05 21:14 | 46.96679 | 12.61489 | 35941 ft | 404 kts | 234° |
| 2026-05-05 21:15 | 46.93416 | 12.54806 | 35937 ft | 402 kts | 234° |
| 2026-05-05 21:15 | 46.90175 | 12.48181 | 36013 ft | 399 kts | 234° |
| 2026-05-05 21:16 | 46.86949 | 12.41609 | 36025 ft | 398 kts | 234° |
| 2026-05-05 21:16 | 46.83724 | 12.35048 | 36039 ft | 397 kts | 234° |
| 2026-05-05 21:17 | 46.80507 | 12.28484 | 36072 ft | 397 kts | 237° |
| 2026-05-05 21:17 | 46.77917 | 12.21379 | 36037 ft | 397 kts | 242° |
| 2026-05-05 21:18 | 46.75435 | 12.14191 | 35964 ft | 396 kts | 242° |
| 2026-05-05 21:18 | 46.72941 | 12.07042 | 35989 ft | 394 kts | 242° |
| 2026-05-05 21:19 | 46.70445 | 11.99928 | 35981 ft | 394 kts | 242° |
| 2026-05-05 21:19 | 46.67947 | 11.92831 | 35958 ft | 394 kts | 242° |
| 2026-05-05 21:20 | 46.65464 | 11.85794 | 35969 ft | 392 kts | 242° |
| 2026-05-05 21:20 | 46.62968 | 11.78735 | 35978 ft | 392 kts | 242° |
| 2026-05-05 21:21 | 46.60308 | 11.71755 | 35982 ft | 394 kts | 234° |
| 2026-05-05 21:21 | 46.56886 | 11.65550 | 36281 ft | 395 kts | 231° |
| 2026-05-05 21:22 | 46.55153 | 11.62454 | 36467 ft | 395 kts | 231° |
| 2026-05-05 21:22 | 46.53420 | 11.59350 | 36596 ft | 396 kts | 231° |
| 2026-05-05 21:22 | 46.49962 | 11.53142 | 36753 ft | 394 kts | 231° |
| 2026-05-05 21:23 | 46.48240 | 11.50045 | 36870 ft | 395 kts | 231° |
| 2026-05-05 21:23 | 46.46513 | 11.46940 | 36937 ft | 396 kts | 231° |
| 2026-05-05 21:23 | 46.43036 | 11.40701 | 36974 ft | 400 kts | 231° |
| 2026-05-05 21:24 | 46.39522 | 11.34405 | 36999 ft | 403 kts | 231° |
| 2026-05-05 21:24 | 46.35983 | 11.28078 | 37011 ft | 404 kts | 231° |
| 2026-05-05 21:25 | 46.32477 | 11.21827 | 37030 ft | 394 kts | 231° |
| 2026-05-05 21:25 | 46.29032 | 11.15697 | 37045 ft | 392 kts | 231° |
| 2026-05-05 21:26 | 46.25587 | 11.09584 | 37041 ft | 392 kts | 231° |
| 2026-05-05 21:26 | 46.22727 | 11.04516 | 37047 ft | 391 kts | 231° |
| 2026-05-05 21:27 | 46.19283 | 10.98426 | 37036 ft | 392 kts | 231° |
| 2026-05-05 21:27 | 46.15831 | 10.92335 | 37020 ft | 393 kts | 231° |
| 2026-05-05 21:28 | 46.12362 | 10.86227 | 37018 ft | 396 kts | 231° |
| 2026-05-05 21:28 | 46.08859 | 10.80074 | 37008 ft | 398 kts | 230° |
| 2026-05-05 21:29 | 46.05336 | 10.73900 | 37000 ft | 400 kts | 230° |
| 2026-05-05 21:29 | 46.01789 | 10.67699 | 37013 ft | 402 kts | 230° |
| 2026-05-05 21:30 | 45.98229 | 10.61488 | 37001 ft | 403 kts | 230° |
| 2026-05-05 21:30 | 45.94663 | 10.55280 | 36994 ft | 403 kts | 230° |
| 2026-05-05 21:31 | 45.91098 | 10.49086 | 37021 ft | 402 kts | 230° |
| 2026-05-05 21:31 | 45.87530 | 10.42902 | 36977 ft | 401 kts | 230° |
| 2026-05-05 21:32 | 45.83983 | 10.36766 | 37012 ft | 399 kts | 230° |
| 2026-05-05 21:32 | 45.80462 | 10.30691 | 37004 ft | 399 kts | 230° |
| 2026-05-05 21:33 | 45.76920 | 10.24593 | 37033 ft | 398 kts | 230° |
| 2026-05-05 21:33 | 45.73383 | 10.18515 | 37010 ft | 397 kts | 230° |
| 2026-05-05 21:34 | 45.69850 | 10.12448 | 36990 ft | 396 kts | 230° |
| 2026-05-05 21:34 | 45.66317 | 10.06407 | 36991 ft | 395 kts | 230° |
| 2026-05-05 21:35 | 45.62802 | 10.00412 | 36988 ft | 393 kts | 230° |
| 2026-05-05 21:35 | 45.59293 | 9.94438 | 36994 ft | 391 kts | 230° |
| 2026-05-05 21:36 | 45.55796 | 9.88495 | 36990 ft | 390 kts | 230° |
| 2026-05-05 21:36 | 45.52304 | 9.82572 | 36988 ft | 389 kts | 230° |
| 2026-05-05 21:37 | 45.48815 | 9.76667 | 36990 ft | 389 kts | 230° |
| 2026-05-05 21:37 | 45.45321 | 9.70765 | 37073 ft | 390 kts | 230° |
| 2026-05-05 21:38 | 45.41822 | 9.64867 | 37070 ft | 390 kts | 230° |
| 2026-05-05 21:38 | 45.38315 | 9.58971 | 37063 ft | 391 kts | 230° |
| 2026-05-05 21:39 | 45.34799 | 9.53069 | 37046 ft | 391 kts | 230° |
| 2026-05-05 21:39 | 45.31277 | 9.47171 | 37036 ft | 391 kts | 230° |
| 2026-05-05 21:40 | 45.27747 | 9.41271 | 37015 ft | 392 kts | 230° |
| 2026-05-05 21:40 | 45.24213 | 9.35376 | 36971 ft | 393 kts | 230° |
| 2026-05-05 21:41 | 45.20669 | 9.29480 | 36978 ft | 393 kts | 230° |
| 2026-05-05 21:41 | 45.17145 | 9.23626 | 36981 ft | 393 kts | 229° |
| 2026-05-05 21:42 | 45.13586 | 9.17729 | 36975 ft | 394 kts | 229° |
| 2026-05-05 21:42 | 45.10024 | 9.11838 | 36972 ft | 394 kts | 229° |
| 2026-05-05 21:43 | 45.06461 | 9.05957 | 36974 ft | 393 kts | 229° |
| 2026-05-05 21:43 | 45.02899 | 9.00091 | 36957 ft | 393 kts | 229° |
| 2026-05-05 21:44 | 44.99335 | 8.94234 | 36973 ft | 392 kts | 229° |
| 2026-05-05 21:44 | 44.95774 | 8.88393 | 36975 ft | 392 kts | 229° |
| 2026-05-05 21:45 | 44.92218 | 8.82573 | 36973 ft | 391 kts | 229° |
| 2026-05-05 21:45 | 44.88659 | 8.76761 | 36987 ft | 391 kts | 229° |
| 2026-05-05 21:46 | 44.85099 | 8.70958 | 36964 ft | 391 kts | 229° |
| 2026-05-05 21:46 | 44.81536 | 8.65163 | 36969 ft | 391 kts | 229° |
| 2026-05-05 21:47 | 44.77978 | 8.59387 | 36973 ft | 390 kts | 229° |
| 2026-05-05 21:47 | 44.74414 | 8.53614 | 36968 ft | 390 kts | 229° |
| 2026-05-05 21:48 | 44.70851 | 8.47854 | 36973 ft | 390 kts | 229° |
| 2026-05-05 21:48 | 44.67288 | 8.42105 | 36961 ft | 390 kts | 229° |
| 2026-05-05 21:49 | 44.63721 | 8.36363 | 36964 ft | 390 kts | 229° |
| 2026-05-05 21:49 | 44.60151 | 8.30628 | 36978 ft | 390 kts | 229° |
| 2026-05-05 21:50 | 44.56577 | 8.24896 | 36970 ft | 391 kts | 229° |
| 2026-05-05 21:50 | 44.53011 | 8.19190 | 36970 ft | 392 kts | 229° |
| 2026-05-05 21:51 | 44.49424 | 8.13462 | 36974 ft | 391 kts | 229° |
| 2026-05-05 21:51 | 44.45835 | 8.07741 | 36973 ft | 391 kts | 229° |
| 2026-05-05 21:52 | 44.40452 | 7.99182 | 36981 ft | 390 kts | 229° |
| 2026-05-05 21:53 | 44.36863 | 7.93490 | 36978 ft | 391 kts | 229° |
| 2026-05-05 21:53 | 44.33269 | 7.87796 | 36963 ft | 391 kts | 229° |
| 2026-05-05 21:54 | 44.29671 | 7.82115 | 36956 ft | 391 kts | 229° |
| 2026-05-05 21:54 | 44.25979 | 7.76554 | 36977 ft | 392 kts | 223° |
| 2026-05-05 21:55 | 44.21891 | 7.71533 | 36995 ft | 392 kts | 223° |
| 2026-05-05 21:55 | 44.17804 | 7.66476 | 36952 ft | 393 kts | 223° |
| 2026-05-05 21:56 | 44.13794 | 7.61307 | 36983 ft | 392 kts | 229° |
| 2026-05-05 21:56 | 44.10221 | 7.55541 | 36985 ft | 395 kts | 229° |
| 2026-05-05 21:57 | 44.06625 | 7.49760 | 36959 ft | 396 kts | 229° |
| 2026-05-05 21:57 | 44.03007 | 7.43981 | 36978 ft | 397 kts | 229° |
| 2026-05-05 21:58 | 43.99393 | 7.38228 | 36974 ft | 399 kts | 229° |
| 2026-05-05 21:58 | 43.95757 | 7.32452 | 36971 ft | 395 kts | 229° |
| 2026-05-05 21:59 | 43.92166 | 7.26751 | 36959 ft | 390 kts | 229° |
| 2026-05-05 21:59 | 43.88597 | 7.21108 | 36962 ft | 388 kts | 229° |
| 2026-05-05 22:00 | 43.85036 | 7.15486 | 36958 ft | 390 kts | 229° |
| 2026-05-05 22:00 | 43.81429 | 7.09801 | 36949 ft | 395 kts | 229° |
| 2026-05-05 22:01 | 43.77798 | 7.04086 | 36948 ft | 396 kts | 229° |
| 2026-05-05 22:01 | 43.74148 | 6.98350 | 36954 ft | 397 kts | 230° |
| 2026-05-05 22:02 | 43.71160 | 6.91948 | 36952 ft | 399 kts | 244° |
| 2026-05-05 22:02 | 43.69096 | 6.84829 | 36954 ft | 399 kts | 246° |
| 2026-05-05 22:03 | 43.67022 | 6.77738 | 36972 ft | 397 kts | 246° |
| 2026-05-05 22:03 | 43.64938 | 6.70683 | 36977 ft | 396 kts | 245° |
| 2026-05-05 22:04 | 43.62869 | 6.63707 | 36954 ft | 394 kts | 245° |
| 2026-05-05 22:04 | 43.60783 | 6.56694 | 36953 ft | 392 kts | 245° |
| 2026-05-05 22:05 | 43.58712 | 6.49749 | 36946 ft | 391 kts | 245° |
| 2026-05-05 22:05 | 43.56653 | 6.42863 | 36941 ft | 391 kts | 245° |
| 2026-05-05 22:06 | 43.54575 | 6.35931 | 36948 ft | 392 kts | 245° |
| 2026-05-05 22:06 | 43.52487 | 6.28986 | 36945 ft | 393 kts | 245° |
| 2026-05-05 22:07 | 43.50387 | 6.22017 | 36943 ft | 394 kts | 245° |
| 2026-05-05 22:07 | 43.48276 | 6.15026 | 36944 ft | 396 kts | 245° |
| 2026-05-05 22:08 | 43.46152 | 6.08016 | 36956 ft | 397 kts | 246° |
| 2026-05-05 22:08 | 43.44022 | 6.00999 | 36947 ft | 398 kts | 246° |
| 2026-05-05 22:09 | 43.41885 | 5.93975 | 36935 ft | 398 kts | 246° |
| 2026-05-05 22:09 | 43.39740 | 5.86938 | 36923 ft | 399 kts | 246° |
| 2026-05-05 22:10 | 43.37596 | 5.79923 | 36932 ft | 398 kts | 245° |
| 2026-05-05 22:10 | 43.35448 | 5.72914 | 36923 ft | 398 kts | 245° |
| 2026-05-05 22:11 | 43.33299 | 5.65921 | 36937 ft | 397 kts | 245° |
| 2026-05-05 22:11 | 43.31147 | 5.58939 | 36911 ft | 397 kts | 245° |
| 2026-05-05 22:12 | 43.29000 | 5.51988 | 36904 ft | 394 kts | 245° |
| 2026-05-05 22:12 | 43.26865 | 5.45088 | 36904 ft | 391 kts | 245° |
| 2026-05-05 22:13 | 43.24744 | 5.38291 | 36907 ft | 388 kts | 243° |
| 2026-05-05 22:13 | 43.21819 | 5.32163 | 36913 ft | 384 kts | 230° |
| 2026-05-05 22:14 | 43.17981 | 5.27086 | 36923 ft | 386 kts | 221° |
| 2026-05-05 22:14 | 43.13849 | 5.22293 | 36922 ft | 392 kts | 221° |
| 2026-05-05 22:15 | 43.09660 | 5.17437 | 36899 ft | 396 kts | 221° |
| 2026-05-05 22:15 | 43.05457 | 5.12548 | 36910 ft | 398 kts | 221° |
| 2026-05-05 22:16 | 43.01234 | 5.07634 | 36913 ft | 398 kts | 221° |
| 2026-05-05 22:16 | 42.97730 | 5.03560 | 36909 ft | 397 kts | 221° |
| 2026-05-05 22:17 | 42.93529 | 4.98682 | 36903 ft | 396 kts | 221° |
| 2026-05-05 22:17 | 42.89344 | 4.93834 | 36916 ft | 393 kts | 222° |
| 2026-05-05 22:18 | 42.85180 | 4.89017 | 36911 ft | 392 kts | 222° |
| 2026-05-05 22:18 | 42.81027 | 4.84221 | 36912 ft | 391 kts | 222° |
| 2026-05-05 22:19 | 42.76886 | 4.79450 | 36913 ft | 390 kts | 221° |
| 2026-05-05 22:19 | 42.72726 | 4.74664 | 36910 ft | 390 kts | 221° |
| 2026-05-05 22:20 | 42.68575 | 4.69897 | 36917 ft | 391 kts | 221° |
| 2026-05-05 22:20 | 42.64411 | 4.65124 | 36912 ft | 392 kts | 221° |
| 2026-05-05 22:21 | 42.60231 | 4.60341 | 36911 ft | 393 kts | 221° |
| 2026-05-05 22:21 | 42.56038 | 4.55553 | 36931 ft | 395 kts | 222° |
| 2026-05-05 22:22 | 42.51823 | 4.50748 | 36887 ft | 396 kts | 222° |
| 2026-05-05 22:22 | 42.47599 | 4.45942 | 36905 ft | 397 kts | 222° |
| 2026-05-05 22:23 | 42.43367 | 4.41135 | 36916 ft | 397 kts | 222° |
| 2026-05-05 22:23 | 42.39128 | 4.36329 | 36914 ft | 398 kts | 222° |
| 2026-05-05 22:24 | 42.34864 | 4.31559 | 36910 ft | 399 kts | 218° |
| 2026-05-05 22:24 | 42.29925 | 4.28088 | 36917 ft | 404 kts | 204° |
| 2026-05-05 22:25 | 42.24630 | 4.25532 | 36925 ft | 404 kts | 204° |
| 2026-05-05 22:25 | 42.19340 | 4.22964 | 36917 ft | 404 kts | 204° |
| 2026-05-05 22:26 | 42.14056 | 4.20382 | 36917 ft | 403 kts | 205° |
| 2026-05-05 22:26 | 42.08782 | 4.17800 | 36907 ft | 403 kts | 205° |
| 2026-05-05 22:27 | 42.03509 | 4.15216 | 36919 ft | 403 kts | 205° |
| 2026-05-05 22:27 | 41.98230 | 4.12635 | 36924 ft | 404 kts | 205° |
| 2026-05-05 22:28 | 41.92988 | 4.10078 | 36924 ft | 404 kts | 205° |
| 2026-05-05 22:28 | 41.87703 | 4.07504 | 36916 ft | 404 kts | 205° |
| 2026-05-05 22:29 | 41.82410 | 4.04931 | 36922 ft | 404 kts | 205° |
| 2026-05-05 22:29 | 41.77114 | 4.02361 | 36920 ft | 405 kts | 205° |
| 2026-05-05 22:30 | 41.71802 | 3.99787 | 36923 ft | 406 kts | 205° |
| 2026-05-05 22:30 | 41.66484 | 3.97216 | 36919 ft | 406 kts | 205° |
| 2026-05-05 22:31 | 41.61163 | 3.94648 | 36923 ft | 407 kts | 205° |
| 2026-05-05 22:31 | 41.55833 | 3.92080 | 36920 ft | 408 kts | 205° |
| 2026-05-05 22:32 | 41.50495 | 3.89512 | 36924 ft | 408 kts | 205° |
| 2026-05-05 22:32 | 41.47822 | 3.88228 | 36802 ft | 410 kts | 204° |
| 2026-05-05 22:32 | 41.45122 | 3.86930 | 36415 ft | 411 kts | 205° |
| 2026-05-05 22:32 | 41.42450 | 3.85652 | 35979 ft | 406 kts | 205° |
| 2026-05-05 22:33 | 41.39810 | 3.84391 | 35597 ft | 400 kts | 205° |
| 2026-05-05 22:33 | 41.37200 | 3.83144 | 35172 ft | 396 kts | 205° |
| 2026-05-05 22:33 | 41.34623 | 3.81913 | 34777 ft | 391 kts | 206° |
| 2026-05-05 22:33 | 41.32076 | 3.80697 | 34410 ft | 387 kts | 206° |
| 2026-05-05 22:34 | 41.29555 | 3.79494 | 34030 ft | 383 kts | 206° |
| 2026-05-05 22:34 | 41.27065 | 3.78306 | 33555 ft | 378 kts | 207° |
| 2026-05-05 22:34 | 41.24601 | 3.77132 | 33160 ft | 373 kts | 207° |
| 2026-05-05 22:34 | 41.22207 | 3.75992 | 32773 ft | 368 kts | 207° |
| 2026-05-05 22:35 | 41.19815 | 3.74854 | 32388 ft | 363 kts | 207° |
| 2026-05-05 22:35 | 41.17448 | 3.73728 | 32015 ft | 358 kts | 207° |
| 2026-05-05 22:35 | 41.15110 | 3.72617 | 31629 ft | 355 kts | 207° |
| 2026-05-05 22:35 | 41.12805 | 3.71522 | 31270 ft | 350 kts | 207° |
| 2026-05-05 22:36 | 41.10535 | 3.70445 | 30794 ft | 343 kts | 207° |
| 2026-05-05 22:36 | 41.08290 | 3.69380 | 30106 ft | 342 kts | 207° |
| 2026-05-05 22:36 | 41.06052 | 3.68317 | 29262 ft | 341 kts | 207° |
| 2026-05-05 22:36 | 41.03823 | 3.67259 | 28539 ft | 338 kts | 207° |
| 2026-05-05 22:37 | 41.01625 | 3.66220 | 27893 ft | 334 kts | 207° |
| 2026-05-05 22:37 | 40.99452 | 3.65193 | 27257 ft | 330 kts | 207° |
| 2026-05-05 22:37 | 40.97305 | 3.64179 | 26621 ft | 326 kts | 207° |
| 2026-05-05 22:37 | 40.95179 | 3.63175 | 25987 ft | 323 kts | 207° |
| 2026-05-05 22:38 | 40.93073 | 3.62181 | 25374 ft | 320 kts | 207° |
| 2026-05-05 22:38 | 40.90989 | 3.61198 | 24790 ft | 316 kts | 207° |
| 2026-05-05 22:38 | 40.88926 | 3.60226 | 24213 ft | 313 kts | 207° |
| 2026-05-05 22:38 | 40.86879 | 3.59261 | 23700 ft | 312 kts | 207° |
| 2026-05-05 22:39 | 40.84834 | 3.58296 | 23231 ft | 312 kts | 207° |
| 2026-05-05 22:39 | 40.82798 | 3.57338 | 22869 ft | 308 kts | 207° |
| 2026-05-05 22:39 | 40.80788 | 3.56394 | 22528 ft | 305 kts | 207° |
| 2026-05-05 22:39 | 40.78804 | 3.55463 | 22190 ft | 301 kts | 207° |
| 2026-05-05 22:40 | 40.76844 | 3.54543 | 21872 ft | 298 kts | 207° |
| 2026-05-05 22:40 | 40.74890 | 3.53625 | 21528 ft | 297 kts | 206° |
| 2026-05-05 22:40 | 40.72948 | 3.52713 | 21209 ft | 297 kts | 206° |
| 2026-05-05 22:40 | 40.70995 | 3.51796 | 20867 ft | 299 kts | 206° |
| 2026-05-05 22:41 | 40.69034 | 3.50876 | 20548 ft | 299 kts | 206° |
| 2026-05-05 22:41 | 40.67078 | 3.49961 | 20220 ft | 297 kts | 206° |
| 2026-05-05 22:41 | 40.65144 | 3.49058 | 19907 ft | 294 kts | 206° |
| 2026-05-05 22:41 | 40.63227 | 3.48163 | 19580 ft | 291 kts | 206° |
| 2026-05-05 22:42 | 40.61327 | 3.47275 | 19262 ft | 289 kts | 205° |
| 2026-05-05 22:42 | 40.59442 | 3.46395 | 18948 ft | 286 kts | 205° |
| 2026-05-05 22:42 | 40.57570 | 3.45521 | 18643 ft | 285 kts | 205° |
| 2026-05-05 22:42 | 40.55700 | 3.44648 | 18332 ft | 286 kts | 205° |
| 2026-05-05 22:43 | 40.53822 | 3.43771 | 17984 ft | 287 kts | 205° |
| 2026-05-05 22:43 | 40.51944 | 3.42896 | 17641 ft | 285 kts | 205° |
| 2026-05-05 22:43 | 40.50084 | 3.42031 | 17319 ft | 282 kts | 205° |
| 2026-05-05 22:43 | 40.48244 | 3.41175 | 17009 ft | 280 kts | 205° |
| 2026-05-05 22:44 | 40.46408 | 3.40321 | 16689 ft | 280 kts | 204° |
| 2026-05-05 22:44 | 40.44565 | 3.39464 | 16370 ft | 281 kts | 204° |
| 2026-05-05 22:44 | 40.42732 | 3.38547 | 15959 ft | 284 kts | 206° |
| 2026-05-05 22:44 | 40.40931 | 3.37559 | 15598 ft | 283 kts | 207° |
| 2026-05-05 22:45 | 40.39125 | 3.36549 | 15268 ft | 281 kts | 207° |
| 2026-05-05 22:45 | 40.37332 | 3.35545 | 14953 ft | 279 kts | 207° |
| 2026-05-05 22:45 | 40.35551 | 3.34549 | 14645 ft | 277 kts | 207° |
| 2026-05-05 22:45 | 40.33779 | 3.33563 | 14336 ft | 276 kts | 206° |
| 2026-05-05 22:46 | 40.32011 | 3.32579 | 14033 ft | 277 kts | 206° |
| 2026-05-05 22:46 | 40.30226 | 3.31588 | 13718 ft | 280 kts | 206° |
| 2026-05-05 22:46 | 40.28435 | 3.30597 | 13361 ft | 279 kts | 206° |
| 2026-05-05 22:46 | 40.26649 | 3.29610 | 13022 ft | 277 kts | 206° |
| 2026-05-05 22:47 | 40.24877 | 3.28632 | 12698 ft | 276 kts | 206° |
| 2026-05-05 22:47 | 40.23115 | 3.27661 | 12384 ft | 274 kts | 207° |
| 2026-05-05 22:47 | 40.21361 | 3.26694 | 12072 ft | 275 kts | 207° |
| 2026-05-05 22:47 | 40.19593 | 3.25718 | 11738 ft | 277 kts | 207° |
| 2026-05-05 22:48 | 40.17806 | 3.24734 | 11440 ft | 278 kts | 206° |
| 2026-05-05 22:48 | 40.16027 | 3.23755 | 11123 ft | 276 kts | 206° |
| 2026-05-05 22:48 | 40.14257 | 3.22783 | 10807 ft | 275 kts | 206° |
| 2026-05-05 22:48 | 40.12497 | 3.21816 | 10492 ft | 274 kts | 207° |
| 2026-05-05 22:49 | 40.10747 | 3.20855 | 10248 ft | 270 kts | 206° |
| 2026-05-05 22:49 | 40.09034 | 3.19917 | 10132 ft | 265 kts | 207° |
| 2026-05-05 22:49 | 40.07345 | 3.18992 | 9997 ft | 260 kts | 207° |
| 2026-05-05 22:49 | 40.05690 | 3.18085 | 9731 ft | 258 kts | 207° |
| 2026-05-05 22:50 | 40.04038 | 3.17179 | 9445 ft | 257 kts | 207° |
| 2026-05-05 22:50 | 40.02396 | 3.16279 | 9159 ft | 255 kts | 207° |
| 2026-05-05 22:50 | 40.00763 | 3.15385 | 8873 ft | 254 kts | 207° |
| 2026-05-05 22:50 | 39.99139 | 3.14496 | 8578 ft | 253 kts | 207° |
| 2026-05-05 22:51 | 39.97516 | 3.13608 | 8303 ft | 253 kts | 206° |
| 2026-05-05 22:51 | 39.95882 | 3.12713 | 8031 ft | 257 kts | 206° |
| 2026-05-05 22:51 | 39.94228 | 3.11809 | 7745 ft | 257 kts | 206° |
| 2026-05-05 22:51 | 39.92580 | 3.10909 | 7461 ft | 257 kts | 206° |
| 2026-05-05 22:52 | 39.90926 | 3.10006 | 7154 ft | 258 kts | 206° |
| 2026-05-05 22:52 | 39.89268 | 3.09102 | 6873 ft | 258 kts | 206° |
| 2026-05-05 22:52 | 39.87612 | 3.08199 | 6570 ft | 259 kts | 206° |
| 2026-05-05 22:52 | 39.85948 | 3.07293 | 6265 ft | 259 kts | 206° |
| 2026-05-05 22:53 | 39.84290 | 3.06391 | 5972 ft | 258 kts | 206° |
| 2026-05-05 22:53 | 39.82639 | 3.05491 | 5676 ft | 256 kts | 206° |
| 2026-05-05 22:53 | 39.81000 | 3.04600 | 5405 ft | 254 kts | 206° |
| 2026-05-05 22:53 | 39.79372 | 3.03716 | 5148 ft | 252 kts | 206° |
| 2026-05-05 22:54 | 39.77759 | 3.02839 | 4883 ft | 251 kts | 206° |
| 2026-05-05 22:54 | 39.76176 | 3.01979 | 4687 ft | 246 kts | 205° |
| 2026-05-05 22:54 | 39.74617 | 3.01134 | 4569 ft | 239 kts | 205° |
| 2026-05-05 22:54 | 39.73105 | 3.00313 | 4448 ft | 232 kts | 205° |
| 2026-05-05 22:55 | 39.71639 | 2.99518 | 4338 ft | 224 kts | 205° |
| 2026-05-05 22:55 | 39.70223 | 2.98750 | 4237 ft | 217 kts | 205° |
| 2026-05-05 22:55 | 39.68839 | 2.98000 | 4025 ft | 215 kts | 206° |
| 2026-05-05 22:55 | 39.67461 | 2.97253 | 3812 ft | 215 kts | 205° |
| 2026-05-05 22:56 | 39.66072 | 2.96501 | 3575 ft | 216 kts | 205° |
| 2026-05-05 22:56 | 39.64779 | 2.95566 | 3380 ft | 211 kts | 229° |
| 2026-05-05 22:56 | 39.63980 | 2.94011 | 3182 ft | 206 kts | 241° |
| 2026-05-05 22:56 | 39.63236 | 2.92464 | 2900 ft | 197 kts | 239° |
| 2026-05-05 22:57 | 39.62533 | 2.90999 | 2639 ft | 185 kts | 240° |
| 2026-05-05 22:57 | 39.61880 | 2.89618 | 2395 ft | 175 kts | 240° |
| 2026-05-05 22:57 | 39.61263 | 2.88309 | 2171 ft | 168 kts | 240° |
| 2026-05-05 22:57 | 39.60658 | 2.87027 | 1953 ft | 165 kts | 240° |
| 2026-05-05 22:58 | 39.60087 | 2.85818 | 1755 ft | 150 kts | 241° |
| 2026-05-05 22:58 | 39.59554 | 2.84685 | 1541 ft | 147 kts | 241° |
| 2026-05-05 22:58 | 39.59014 | 2.83537 | 1355 ft | 152 kts | 240° |
| 2026-05-05 22:58 | 39.58460 | 2.82363 | 1144 ft | 153 kts | 240° |
| 2026-05-05 22:59 | 39.57907 | 2.81190 | 920 ft | 153 kts | 239° |
| 2026-05-05 22:59 | 39.57352 | 2.80010 | 728 ft | 154 kts | 239° |
| 2026-05-05 22:59 | 39.56793 | 2.78823 | 529 ft | 155 kts | 239° |
| 2026-05-05 22:59 | 39.56233 | 2.77634 | 323 ft | 154 kts | 239° |
| 2026-05-05 23:00 | 39.55128 | 2.75288 | 37 ft | 142 kts | 238° |
| 2026-05-05 23:00 | 39.54692 | 2.74367 | 37 ft | 87 kts | 239° |
| 2026-05-05 23:00 | 39.54557 | 2.73996 | 37 ft | 34 kts | 262° |
| 2026-05-05 23:01 | 39.54551 | 2.73781 | 37 ft | 14 kts | 272° |
| 2026-05-05 23:01 | 39.54581 | 2.73664 | 37 ft | 14 kts | 312° |
| 2026-05-05 23:01 | 39.54655 | 2.73663 | 37 ft | 13 kts | 57° |
| 2026-05-05 23:01 | 39.54710 | 2.73777 | 37 ft | 16 kts | 63° |
| 2026-05-05 23:02 | 39.54766 | 2.73897 | 37 ft | 15 kts | 57° |
| 2026-05-05 23:02 | 39.54831 | 2.73996 | 37 ft | 15 kts | 6° |
| 2026-05-05 23:02 | 39.54892 | 2.73963 | 37 ft | 14 kts | 329° |
| 2026-05-05 23:02 | 39.54977 | 2.73899 | 37 ft | 14 kts | 329° |
| 2026-05-05 23:03 | 39.55056 | 2.73837 | 37 ft | 13 kts | 329° |
| 2026-05-05 23:03 | 39.55133 | 2.73777 | 37 ft | 13 kts | 329° |
| 2026-05-05 23:03 | 39.55176 | 2.73692 | 37 ft | 12 kts | 249° |
| 2026-05-05 23:03 | 39.55133 | 2.73596 | 35 ft | 12 kts | 239° |
| 2026-05-05 23:04 | 39.55090 | 2.73504 | 35 ft | 12 kts | 239° |
| 2026-05-05 23:04 | 39.55054 | 2.73432 | 37 ft | 6 kts | 221° |
| 2026-05-05 23:04 | 39.55019 | 2.73434 | 37 ft | 3 kts | 165° |
| 2026-05-05 23:04 | 39.55003 | 2.73440 | 37 ft | 0 kts | 165° |